Time;durP1;ratioP1;P1;durP2;ratioP2;P2;SDS_P1;SDS_P2;PMS_P1;PMS_P2;Temp;Humidity;BMP_temperature;BMP_pressure;BME280_temperature;BME280_humidity;BME280_pressure;Samples;Min_cycle;Max_cycle;Signal;HPM_P1;HPM_P2
2023/08/17 00:01:44;;;;;;;;;;;23.00;57.70;;;;;;5113070;27;19935;-59
2023/08/17 00:04:13;;;;;;;;;;;22.90;57.60;;;;;;5099550;28;19931;-59
2023/08/17 00:06:39;;;;;;;;;;;23.00;57.70;;;;;;5113552;27;19931;-58
2023/08/17 00:09:07;;;;;;;;;;;22.90;57.70;;;;;;5100786;28;19919;-58
2023/08/17 00:11:33;;;;;;;;;;;23.00;57.70;;;;;;5104905;27;20022;-59
2023/08/17 00:14:00;;;;;;;;;;;23.00;57.70;;;;;;5110239;28;19978;-59
2023/08/17 00:16:27;;;;;;;;;;;23.00;57.80;;;;;;5101933;27;19923;-58
2023/08/17 00:18:54;;;;;;;;;;;23.00;57.70;;;;;;5110019;28;19959;-59
2023/08/17 00:21:22;;;;;;;;;;;23.00;57.70;;;;;;5100274;28;19976;-58
2023/08/17 00:23:49;;;;;;;;;;;23.00;57.70;;;;;;5120395;27;20001;-58
2023/08/17 00:26:15;;;;;;;;;;;23.00;57.80;;;;;;5113087;27;19980;-59
2023/08/17 00:28:42;;;;;;;;;;;23.00;57.80;;;;;;5101952;28;19923;-59
2023/08/17 00:31:09;;;;;;;;;;;23.00;57.80;;;;;;5100675;27;19924;-58
2023/08/17 00:33:35;;;;;;;;;;;23.00;57.80;;;;;;5113387;27;19988;-58
2023/08/17 00:36:02;;;;;;;;;;;23.00;57.80;;;;;;5097128;28;19969;-59
2023/08/17 00:38:30;;;;;;;;;;;23.00;57.80;;;;;;5100763;27;19924;-59
2023/08/17 00:40:57;;;;;;;;;;;23.00;57.80;;;;;;5114235;27;19924;-58
2023/08/17 00:43:24;;;;;;;;;;;23.00;57.80;;;;;;5111097;27;19931;-58
2023/08/17 00:45:51;;;;;;;;;;;23.00;57.80;;;;;;5112719;27;19923;-58
2023/08/17 00:48:17;;;;;;;;;;;23.00;57.80;;;;;;5105183;27;19949;-58
2023/08/17 00:50:44;;;;;;;;;;;23.00;57.80;;;;;;5107504;27;20055;-59
2023/08/17 00:53:13;;;;;;;;;;;23.00;57.80;;;;;;5108691;27;19927;-59
2023/08/17 00:55:41;;;;;;;;;;;23.00;57.80;;;;;;5098185;27;19984;-58
2023/08/17 00:58:08;;;;;;;;;;;23.00;57.80;;;;;;5120515;27;20030;-58
2023/08/17 01:00:34;;;;;;;;;;;23.00;57.80;;;;;;5110134;27;20318;-58
2023/08/17 01:03:01;;;;;;;;;;;23.00;57.70;;;;;;5106745;27;19929;-58
2023/08/17 01:05:28;;;;;;;;;;;23.00;57.70;;;;;;5101434;27;20507;-58
2023/08/17 01:07:55;;;;;;;;;;;23.00;57.70;;;;;;5101081;28;19924;-59
2023/08/17 01:10:21;;;;;;;;;;;23.00;57.70;;;;;;5121552;27;19935;-58
2023/08/17 01:12:52;;;;;;;;;;;23.00;57.70;;;;;;5123527;27;19927;-58
2023/08/17 01:15:20;;;;;;;;;;;23.00;57.70;;;;;;5113962;27;19924;-58
2023/08/17 01:17:48;;;;;;;;;;;23.00;57.70;;;;;;5097486;28;19923;-58
2023/08/17 01:20:15;;;;;;;;;;;23.00;57.60;;;;;;5096653;28;19930;-59
2023/08/17 01:22:42;;;;;;;;;;;23.00;57.60;;;;;;5114053;28;19974;-58
2023/08/17 01:25:10;;;;;;;;;;;23.00;57.60;;;;;;5099192;28;19928;-58
2023/08/17 01:27:38;;;;;;;;;;;23.00;57.60;;;;;;5103164;28;19931;-58
2023/08/17 01:30:08;;;;;;;;;;;23.00;57.60;;;;;;5097952;28;19931;-58
2023/08/17 01:32:36;;;;;;;;;;;23.00;57.60;;;;;;5085534;28;19932;-58
2023/08/17 01:35:04;;;;;;;;;;;23.00;57.60;;;;;;5103957;28;19931;-59
2023/08/17 01:37:32;;;;;;;;;;;23.00;57.60;;;;;;5094214;28;20005;-58
2023/08/17 01:39:59;;;;;;;;;;;22.90;57.50;;;;;;5127155;28;19923;-59
2023/08/17 01:42:27;;;;;;;;;;;22.90;57.50;;;;;;5099665;28;19924;-58
2023/08/17 01:44:54;;;;;;;;;;;23.00;57.60;;;;;;5100337;28;19924;-58
2023/08/17 01:47:21;;;;;;;;;;;23.00;57.60;;;;;;5095325;28;19924;-58
2023/08/17 01:49:48;;;;;;;;;;;23.00;57.60;;;;;;5104883;27;19973;-59
2023/08/17 01:52:15;;;;;;;;;;;23.00;57.60;;;;;;5110460;28;19926;-58
2023/08/17 01:54:41;;;;;;;;;;;23.00;57.60;;;;;;5105082;28;19923;-58
2023/08/17 01:57:08;;;;;;;;;;;23.00;57.60;;;;;;5091710;28;19978;-58
2023/08/17 01:59:36;;;;;;;;;;;23.00;57.60;;;;;;5110056;27;19923;-59
2023/08/17 02:02:03;;;;;;;;;;;23.00;57.60;;;;;;5116389;27;19931;-59
2023/08/17 02:04:30;;;;;;;;;;;23.00;57.50;;;;;;5105642;27;19938;-58
2023/08/17 02:06:56;;;;;;;;;;;23.00;57.40;;;;;;5105468;27;19920;-59
2023/08/17 02:09:23;;;;;;;;;;;23.00;57.30;;;;;;5105559;27;19945;-58
2023/08/17 02:11:50;;;;;;;;;;;22.90;57.20;;;;;;5122039;27;19924;-58
2023/08/17 02:14:17;;;;;;;;;;;23.00;57.20;;;;;;5105597;28;19939;-59
2023/08/17 02:16:45;;;;;;;;;;;23.00;57.20;;;;;;5101775;27;20032;-58
2023/08/17 02:19:11;;;;;;;;;;;22.90;57.20;;;;;;5117958;27;19924;-58
2023/08/17 02:21:38;;;;;;;;;;;23.00;57.20;;;;;;5096715;27;19924;-58
2023/08/17 02:24:05;;;;;;;;;;;22.90;57.20;;;;;;5108405;27;19923;-58
2023/08/17 02:26:32;;;;;;;;;;;22.90;57.20;;;;;;5115137;27;19984;-58
2023/08/17 02:28:59;;;;;;;;;;;22.90;57.20;;;;;;5107846;27;19972;-58
2023/08/17 02:31:26;;;;;;;;;;;22.90;57.10;;;;;;5121136;27;19976;-58
2023/08/17 02:33:58;;;;;;;;;;;22.90;57.10;;;;;;5116269;27;19928;-58
2023/08/17 02:36:24;;;;;;;;;;;22.90;57.00;;;;;;5108042;27;19923;-58
2023/08/17 02:38:51;;;;;;;;;;;22.90;57.10;;;;;;5101263;27;20204;-58
2023/08/17 02:41:18;;;;;;;;;;;22.90;57.00;;;;;;5108144;27;19931;-58
2023/08/17 02:43:44;;;;;;;;;;;22.90;57.10;;;;;;5105104;28;19931;-58
2023/08/17 02:46:12;;;;;;;;;;;22.90;57.00;;;;;;5101295;28;19988;-58
2023/08/17 02:48:38;;;;;;;;;;;22.90;57.00;;;;;;5094522;27;19924;-58
2023/08/17 02:51:06;;;;;;;;;;;22.90;56.90;;;;;;5106018;27;19924;-58
2023/08/17 02:53:33;;;;;;;;;;;22.90;56.90;;;;;;5124012;27;19934;-58
2023/08/17 02:56:00;;;;;;;;;;;22.90;56.90;;;;;;5094829;28;19984;-58
2023/08/17 02:58:27;;;;;;;;;;;22.90;56.80;;;;;;5118102;27;19924;-58
2023/08/17 03:00:55;;;;;;;;;;;22.90;56.70;;;;;;5097793;27;22392;-58
2023/08/17 03:03:22;;;;;;;;;;;22.90;56.70;;;;;;5107926;28;20373;-59
2023/08/17 03:05:49;;;;;;;;;;;22.90;56.70;;;;;;5116887;27;19931;-58
2023/08/17 03:08:17;;;;;;;;;;;22.90;56.70;;;;;;5089720;28;20363;-58
2023/08/17 03:10:44;;;;;;;;;;;22.90;56.70;;;;;;5096156;28;19928;-59
2023/08/17 03:13:10;;;;;;;;;;;22.90;56.60;;;;;;5104149;28;19974;-58
2023/08/17 03:15:39;;;;;;;;;;;22.90;56.60;;;;;;5129806;27;20488;-58
2023/08/17 03:18:09;;;;;;;;;;;22.90;56.60;;;;;;5107577;28;20361;-59
2023/08/17 03:20:36;;;;;;;;;;;22.90;56.70;;;;;;5098886;28;19967;-58
2023/08/17 03:23:05;;;;;;;;;;;22.90;56.70;;;;;;5119486;27;19970;-59
2023/08/17 03:25:34;;;;;;;;;;;22.90;56.70;;;;;;5122116;27;19924;-58
2023/08/17 03:28:00;;;;;;;;;;;22.90;56.70;;;;;;5096449;28;19934;-59
2023/08/17 03:30:27;;;;;;;;;;;22.90;56.80;;;;;;5115847;27;19920;-58
2023/08/17 03:32:54;;;;;;;;;;;22.90;56.80;;;;;;5121520;27;19924;-58
2023/08/17 03:35:21;;;;;;;;;;;22.90;56.90;;;;;;5115907;27;19924;-58
2023/08/17 03:37:47;;;;;;;;;;;22.90;56.90;;;;;;5109875;28;19988;-58
2023/08/17 03:40:14;;;;;;;;;;;22.90;56.80;;;;;;5098710;28;19924;-58
2023/08/17 03:42:43;;;;;;;;;;;22.90;56.80;;;;;;5124170;27;19935;-59
2023/08/17 03:45:09;;;;;;;;;;;22.90;56.80;;;;;;5103533;28;19931;-58
2023/08/17 03:47:36;;;;;;;;;;;22.90;56.90;;;;;;5105313;27;19969;-58
2023/08/17 03:50:03;;;;;;;;;;;22.90;56.90;;;;;;5129205;27;19928;-59
2023/08/17 03:52:30;;;;;;;;;;;22.90;56.80;;;;;;5124480;27;19927;-58
2023/08/17 03:54:57;;;;;;;;;;;22.90;56.80;;;;;;5105136;27;19930;-58
2023/08/17 03:57:23;;;;;;;;;;;22.90;56.80;;;;;;5096747;27;19923;-58
2023/08/17 03:59:51;;;;;;;;;;;22.90;56.90;;;;;;5103309;28;19923;-58
2023/08/17 04:02:18;;;;;;;;;;;22.90;56.90;;;;;;5122081;27;19928;-59
2023/08/17 04:04:45;;;;;;;;;;;22.90;56.90;;;;;;5111509;28;20393;-59
2023/08/17 04:07:12;;;;;;;;;;;22.80;56.80;;;;;;5112233;27;19928;-59
2023/08/17 04:09:38;;;;;;;;;;;22.90;56.90;;;;;;5116637;27;19971;-58
2023/08/17 04:12:05;;;;;;;;;;;22.80;56.90;;;;;;5101532;27;19930;-58
2023/08/17 04:14:32;;;;;;;;;;;22.90;57.00;;;;;;5100099;27;19924;-58
2023/08/17 04:17:00;;;;;;;;;;;22.90;57.00;;;;;;5098582;27;19927;-58
2023/08/17 04:19:27;;;;;;;;;;;22.90;57.00;;;;;;5124316;27;19974;-59
2023/08/17 04:21:54;;;;;;;;;;;22.90;57.00;;;;;;5121571;27;19930;-58
2023/08/17 04:24:21;;;;;;;;;;;22.90;57.10;;;;;;5106417;27;19931;-58
2023/08/17 04:26:47;;;;;;;;;;;22.90;57.10;;;;;;5102749;27;19924;-59
2023/08/17 04:29:14;;;;;;;;;;;22.90;57.10;;;;;;5102803;27;19924;-59
2023/08/17 04:31:41;;;;;;;;;;;22.90;57.10;;;;;;5112570;27;19931;-58
2023/08/17 04:34:09;;;;;;;;;;;22.90;57.10;;;;;;5102101;27;19976;-58
2023/08/17 04:36:36;;;;;;;;;;;22.90;57.10;;;;;;5109223;27;19928;-58
2023/08/17 04:39:04;;;;;;;;;;;22.90;57.10;;;;;;5119768;27;20429;-58
2023/08/17 04:41:30;;;;;;;;;;;22.90;57.10;;;;;;5100599;28;20010;-58
2023/08/17 04:43:57;;;;;;;;;;;22.90;57.20;;;;;;5092326;28;19971;-59
2023/08/17 04:46:24;;;;;;;;;;;22.90;57.20;;;;;;5101647;28;19928;-58
2023/08/17 04:48:52;;;;;;;;;;;22.90;57.20;;;;;;5112174;27;19927;-58
2023/08/17 04:51:20;;;;;;;;;;;22.90;57.20;;;;;;5101326;28;20141;-59
2023/08/17 04:53:47;;;;;;;;;;;22.90;57.20;;;;;;5113621;27;19927;-59
2023/08/17 04:56:14;;;;;;;;;;;22.90;57.20;;;;;;5092934;28;19924;-58
2023/08/17 04:58:40;;;;;;;;;;;22.90;57.30;;;;;;5120966;27;19923;-58
2023/08/17 05:01:07;;;;;;;;;;;22.90;57.30;;;;;;5099321;28;19924;-58
2023/08/17 05:03:34;;;;;;;;;;;22.90;57.30;;;;;;5115346;27;19948;-59
2023/08/17 05:06:01;;;;;;;;;;;22.90;57.30;;;;;;5097043;28;19923;-59
2023/08/17 05:08:29;;;;;;;;;;;22.90;57.40;;;;;;5127130;27;19931;-58
2023/08/17 05:10:56;;;;;;;;;;;22.90;57.40;;;;;;5102373;28;20022;-58
2023/08/17 05:13:23;;;;;;;;;;;22.90;57.40;;;;;;5080344;28;20357;-58
2023/08/17 05:15:49;;;;;;;;;;;22.90;57.40;;;;;;5099838;28;19992;-59
2023/08/17 05:18:16;;;;;;;;;;;22.90;57.40;;;;;;5095533;28;19940;-58
2023/08/17 05:20:43;;;;;;;;;;;22.90;57.40;;;;;;5102011;28;19923;-59
2023/08/17 05:23:09;;;;;;;;;;;22.90;57.40;;;;;;5117262;28;19935;-58
2023/08/17 05:25:38;;;;;;;;;;;22.90;57.40;;;;;;5102977;28;19930;-58
2023/08/17 05:28:05;;;;;;;;;;;22.90;57.40;;;;;;5107376;28;20092;-58
2023/08/17 05:30:31;;;;;;;;;;;22.90;57.50;;;;;;5090539;28;19928;-59
2023/08/17 05:32:58;;;;;;;;;;;22.90;57.50;;;;;;5103147;28;19931;-58
2023/08/17 05:35:25;;;;;;;;;;;22.90;57.50;;;;;;5114517;28;19963;-58
2023/08/17 05:37:52;;;;;;;;;;;22.90;57.50;;;;;;5114062;28;19924;-59
2023/08/17 05:40:18;;;;;;;;;;;22.90;57.50;;;;;;5090613;28;19996;-59
2023/08/17 05:42:47;;;;;;;;;;;22.90;57.50;;;;;;5113325;28;19939;-59
2023/08/17 05:45:13;;;;;;;;;;;22.90;57.60;;;;;;5094070;28;19928;-59
2023/08/17 05:47:40;;;;;;;;;;;22.90;57.60;;;;;;5089061;28;19927;-59
2023/08/17 05:50:07;;;;;;;;;;;22.90;57.60;;;;;;5092205;28;19946;-58
2023/08/17 05:52:34;;;;;;;;;;;22.90;57.70;;;;;;5111781;28;19976;-58
2023/08/17 05:55:01;;;;;;;;;;;23.00;57.80;;;;;;5095457;28;19934;-59
2023/08/17 05:57:28;;;;;;;;;;;22.90;57.80;;;;;;5092999;28;20495;-58
2023/08/17 05:59:56;;;;;;;;;;;22.90;57.80;;;;;;5094219;28;19958;-58
2023/08/17 06:02:23;;;;;;;;;;;22.90;57.90;;;;;;5093100;28;19924;-58
2023/08/17 06:04:50;;;;;;;;;;;23.00;57.90;;;;;;5102899;28;20380;-59
2023/08/17 06:07:17;;;;;;;;;;;22.90;57.90;;;;;;5100582;28;19923;-59
2023/08/17 06:09:43;;;;;;;;;;;23.00;58.00;;;;;;5092779;28;19932;-58
2023/08/17 06:12:10;;;;;;;;;;;23.00;58.00;;;;;;5099147;28;19927;-58
2023/08/17 06:14:37;;;;;;;;;;;23.00;58.10;;;;;;5099403;28;19923;-58
2023/08/17 06:17:05;;;;;;;;;;;23.00;58.20;;;;;;5105888;28;19932;-58
2023/08/17 06:19:33;;;;;;;;;;;23.00;58.20;;;;;;5101692;28;19976;-58
2023/08/17 06:22:00;;;;;;;;;;;23.00;58.30;;;;;;5130789;27;19973;-58
2023/08/17 06:24:26;;;;;;;;;;;23.00;58.30;;;;;;5094345;28;19924;-58
2023/08/17 06:26:53;;;;;;;;;;;23.00;58.30;;;;;;5110741;28;20358;-58
2023/08/17 06:29:20;;;;;;;;;;;23.00;58.40;;;;;;5100539;28;19924;-58
2023/08/17 06:31:47;;;;;;;;;;;23.00;58.40;;;;;;5125505;28;20593;-58
2023/08/17 06:34:15;;;;;;;;;;;23.00;58.40;;;;;;5101542;28;19927;-58
2023/08/17 06:36:41;;;;;;;;;;;23.00;58.60;;;;;;5100780;28;19938;-58
2023/08/17 06:39:08;;;;;;;;;;;23.00;59.00;;;;;;5120552;27;19923;-57
2023/08/17 06:41:35;;;;;;;;;;;23.00;58.50;;;;;;5107070;28;19977;-57
2023/08/17 06:44:02;;;;;;;;;;;23.00;58.50;;;;;;5114028;28;19927;-58
2023/08/17 06:46:28;;;;;;;;;;;23.00;58.60;;;;;;5126384;27;19932;-58
2023/08/17 06:48:55;;;;;;;;;;;23.00;58.60;;;;;;5098337;28;20365;-58
2023/08/17 06:51:23;;;;;;;;;;;23.00;58.60;;;;;;5095367;28;19927;-57
2023/08/17 06:53:50;;;;;;;;;;;23.00;58.60;;;;;;5094941;28;19980;-58
2023/08/17 06:56:17;;;;;;;;;;;23.00;58.60;;;;;;5113484;28;19955;-58
2023/08/17 06:58:44;;;;;;;;;;;23.00;58.60;;;;;;5095437;27;19977;-58
2023/08/17 07:01:11;;;;;;;;;;;23.00;58.60;;;;;;5095237;28;19928;-58
2023/08/17 07:03:38;;;;;;;;;;;23.00;58.60;;;;;;5097489;27;19928;-57
2023/08/17 07:06:04;;;;;;;;;;;23.00;58.60;;;;;;5089479;28;20060;-58
2023/08/17 07:08:33;;;;;;;;;;;23.00;58.70;;;;;;5098908;27;19924;-58
2023/08/17 07:11:00;;;;;;;;;;;23.00;58.70;;;;;;5095239;28;20014;-58
2023/08/17 07:13:27;;;;;;;;;;;23.10;58.70;;;;;;5097144;27;20032;-58
2023/08/17 07:15:53;;;;;;;;;;;23.00;58.60;;;;;;5094529;27;19927;-58
2023/08/17 07:18:20;;;;;;;;;;;23.00;58.60;;;;;;5109917;27;19934;-58
2023/08/17 07:20:47;;;;;;;;;;;23.00;58.60;;;;;;5099969;27;19973;-58
2023/08/17 07:23:14;;;;;;;;;;;23.10;58.70;;;;;;5116391;27;20335;-58
2023/08/17 07:25:42;;;;;;;;;;;23.00;58.50;;;;;;5117526;27;20133;-58
2023/08/17 07:28:09;;;;;;;;;;;23.10;58.60;;;;;;5103750;28;19972;-58
2023/08/17 07:30:36;;;;;;;;;;;23.10;58.60;;;;;;5094483;27;20332;-58
2023/08/17 07:33:02;;;;;;;;;;;23.10;58.60;;;;;;5124309;27;20282;-58
2023/08/17 07:35:29;;;;;;;;;;;23.10;58.60;;;;;;5096712;28;19924;-58
2023/08/17 07:37:56;;;;;;;;;;;23.10;58.60;;;;;;5117829;27;19983;-58
2023/08/17 07:40:22;;;;;;;;;;;23.10;58.60;;;;;;5123730;27;19990;-58
2023/08/17 07:42:51;;;;;;;;;;;23.10;58.60;;;;;;5104415;27;19972;-59
2023/08/17 07:45:17;;;;;;;;;;;23.10;58.50;;;;;;5113029;28;19928;-58
2023/08/17 07:47:44;;;;;;;;;;;23.10;58.50;;;;;;5096308;28;19924;-59
2023/08/17 07:50:11;;;;;;;;;;;23.10;58.40;;;;;;5099282;28;19935;-59
2023/08/17 07:52:38;;;;;;;;;;;23.10;58.40;;;;;;5093821;28;19923;-59
2023/08/17 07:55:05;;;;;;;;;;;23.10;58.40;;;;;;5093817;28;20133;-59
2023/08/17 07:57:32;;;;;;;;;;;23.10;58.30;;;;;;5092377;28;19936;-59
2023/08/17 08:00:00;;;;;;;;;;;23.10;58.30;;;;;;5104315;27;20136;-58
2023/08/17 08:02:27;;;;;;;;;;;23.10;58.30;;;;;;5127466;27;19927;-58
2023/08/17 08:04:53;;;;;;;;;;;23.10;58.20;;;;;;5099584;27;19973;-58
2023/08/17 08:07:20;;;;;;;;;;;23.10;58.10;;;;;;5114078;27;19927;-57
2023/08/17 08:09:47;;;;;;;;;;;23.10;58.10;;;;;;5101758;27;19923;-57
2023/08/17 08:12:14;;;;;;;;;;;23.10;58.10;;;;;;5097137;27;20001;-57
2023/08/17 08:14:40;;;;;;;;;;;23.10;58.10;;;;;;5091504;28;19932;-57
2023/08/17 08:17:09;;;;;;;;;;;23.10;58.00;;;;;;5093942;28;19932;-57
2023/08/17 08:19:35;;;;;;;;;;;23.10;58.00;;;;;;5093641;28;20322;-58
2023/08/17 08:22:02;;;;;;;;;;;23.10;58.00;;;;;;5096494;28;19983;-58
2023/08/17 08:24:34;;;;;;;;;;;23.10;58.00;;;;;;5090388;28;19931;-57
2023/08/17 08:27:01;;;;;;;;;;;23.10;58.60;;;;;;5095822;28;19924;-57
2023/08/17 08:29:27;;;;;;;;;;;23.10;58.00;;;;;;5095327;28;19928;-58
2023/08/17 08:31:54;;;;;;;;;;;23.10;58.00;;;;;;5094092;28;19977;-57
2023/08/17 08:34:23;;;;;;;;;;;23.10;58.00;;;;;;5096705;28;19931;-57
2023/08/17 08:36:49;;;;;;;;;;;23.10;58.00;;;;;;5096536;27;19927;-58
2023/08/17 08:39:16;;;;;;;;;;;23.10;58.00;;;;;;5111944;28;19931;-57
2023/08/17 08:41:43;;;;;;;;;;;23.20;58.10;;;;;;5095813;27;19991;-57
2023/08/17 08:44:10;;;;;;;;;;;23.10;58.00;;;;;;5112014;28;19984;-58
2023/08/17 08:46:36;;;;;;;;;;;23.10;58.00;;;;;;5098522;28;19934;-58
2023/08/17 08:49:03;;;;;;;;;;;23.10;58.00;;;;;;5100829;27;19949;-57
2023/08/17 08:51:33;;;;;;;;;;;23.20;58.10;;;;;;5095247;27;19951;-58
2023/08/17 08:54:01;;;;;;;;;;;23.20;58.10;;;;;;5096046;28;19932;-57
2023/08/17 08:56:28;;;;;;;;;;;23.20;58.10;;;;;;5095183;27;20027;-58
2023/08/17 08:58:55;;;;;;;;;;;23.20;58.10;;;;;;5109496;28;19931;-58
2023/08/17 09:01:22;;;;;;;;;;;23.20;58.10;;;;;;5093223;28;19928;-58
2023/08/17 09:03:48;;;;;;;;;;;23.20;58.10;;;;;;5096091;27;19927;-58
2023/08/17 09:06:15;;;;;;;;;;;23.20;58.10;;;;;;5091719;28;19931;-57
2023/08/17 09:08:44;;;;;;;;;;;23.20;58.10;;;;;;5113051;27;19928;-58
2023/08/17 09:11:11;;;;;;;;;;;23.20;58.10;;;;;;5091642;28;19924;-57
2023/08/17 09:13:37;;;;;;;;;;;23.20;58.10;;;;;;5093467;28;20335;-57
2023/08/17 09:16:05;;;;;;;;;;;23.20;58.00;;;;;;5094271;28;19924;-58
2023/08/17 09:18:31;;;;;;;;;;;23.20;58.00;;;;;;5093901;28;19924;-58
2023/08/17 09:20:58;;;;;;;;;;;23.20;58.10;;;;;;5097788;28;19959;-57
2023/08/17 09:23:25;;;;;;;;;;;23.20;58.00;;;;;;5110515;28;19924;-58
2023/08/17 09:25:57;;;;;;;;;;;23.20;58.00;;;;;;5092788;28;19923;-58
2023/08/17 09:28:24;;;;;;;;;;;23.20;58.00;;;;;;5093245;28;20006;-58
2023/08/17 09:30:52;;;;;;;;;;;23.20;58.00;;;;;;5088931;28;19938;-58
2023/08/17 09:33:19;;;;;;;;;;;23.20;58.00;;;;;;5091604;28;19960;-57
2023/08/17 09:35:46;;;;;;;;;;;23.20;58.00;;;;;;5093887;28;19972;-57
2023/08/17 09:38:13;;;;;;;;;;;23.20;58.00;;;;;;5093150;28;19927;-58
2023/08/17 09:40:40;;;;;;;;;;;23.20;57.90;;;;;;5092714;28;19924;-57
2023/08/17 09:43:08;;;;;;;;;;;23.20;57.90;;;;;;5098446;28;19928;-57
2023/08/17 09:45:36;;;;;;;;;;;23.20;57.90;;;;;;5095048;28;19932;-57
2023/08/17 09:48:03;;;;;;;;;;;23.20;57.90;;;;;;5094850;28;19931;-58
2023/08/17 09:50:30;;;;;;;;;;;23.20;57.90;;;;;;5099641;28;19931;-58
2023/08/17 09:52:56;;;;;;;;;;;23.20;57.90;;;;;;5121650;27;19932;-57
2023/08/17 09:55:23;;;;;;;;;;;23.20;57.80;;;;;;5091313;28;19943;-58
2023/08/17 09:57:51;;;;;;;;;;;23.20;57.80;;;;;;5111702;28;19962;-57
2023/08/17 10:00:20;;;;;;;;;;;23.20;57.80;;;;;;5093543;28;20014;-58
2023/08/17 10:02:47;;;;;;;;;;;23.20;57.80;;;;;;5108611;28;19924;-57
2023/08/17 10:05:13;;;;;;;;;;;23.20;57.80;;;;;;5092196;28;20357;-58
2023/08/17 10:07:42;;;;;;;;;;;23.20;57.90;;;;;;5094543;28;19969;-58
2023/08/17 10:10:09;;;;;;;;;;;23.20;57.90;;;;;;5096343;28;19931;-58
2023/08/17 10:12:37;;;;;;;;;;;23.20;57.90;;;;;;5128380;27;20262;-58
2023/08/17 10:15:04;;;;;;;;;;;23.20;57.90;;;;;;5119913;27;19923;-57
2023/08/17 10:17:35;;;;;;;;;;;23.20;57.90;;;;;;5094644;27;20008;-58
2023/08/17 10:20:02;;;;;;;;;;;23.20;57.90;;;;;;5116541;27;19976;-57
2023/08/17 10:22:31;;;;;;;;;;;23.20;57.90;;;;;;5100004;28;19923;-57
2023/08/17 10:24:58;;;;;;;;;;;23.20;57.90;;;;;;5099722;28;19928;-58
2023/08/17 10:27:25;;;;;;;;;;;23.20;57.90;;;;;;5095704;28;19927;-57
2023/08/17 10:29:51;;;;;;;;;;;23.20;57.90;;;;;;5114668;27;19928;-57
2023/08/17 10:32:18;;;;;;;;;;;23.20;57.90;;;;;;5116027;27;19931;-57
2023/08/17 10:34:46;;;;;;;;;;;23.20;57.80;;;;;;5120806;27;19932;-58
2023/08/17 10:37:13;;;;;;;;;;;23.20;57.70;;;;;;5098351;28;19928;-58
2023/08/17 10:39:44;;;;;;;;;;;23.10;57.70;;;;;;5125901;27;19938;-57
2023/08/17 10:42:10;;;;;;;;;;;23.10;57.70;;;;;;5123033;27;19931;-57
2023/08/17 10:44:41;;;;;;;;;;;23.10;57.70;;;;;;5113876;27;19924;-58
2023/08/17 10:47:19;;;;;;;;;;;23.10;57.70;;;;;;5098854;27;19923;-58
2023/08/17 10:49:47;;;;;;;;;;;23.10;57.70;;;;;;5093494;28;19980;-58
2023/08/17 10:52:14;;;;;;;;;;;23.10;57.70;;;;;;5125056;27;19973;-58
2023/08/17 10:54:41;;;;;;;;;;;23.10;57.70;;;;;;5111875;27;19931;-58
2023/08/17 10:57:28;;;;;;;;;;;23.00;57.70;;;;;;5112298;28;19924;-57
2023/08/17 11:00:14;;;;;;;;;;;23.00;57.70;;;;;;5092291;28;19924;-58
2023/08/17 11:02:41;;;;;;;;;;;23.00;57.70;;;;;;5127755;27;19971;-57
2023/08/17 11:05:09;;;;;;;;;;;23.00;57.70;;;;;;5096271;28;20030;-58
2023/08/17 11:07:42;;;;;;;;;;;23.10;57.80;;;;;;5114372;27;19932;-58
2023/08/17 11:10:12;;;;;;;;;;;23.00;57.70;;;;;;5102197;27;20350;-57
2023/08/17 11:12:39;;;;;;;;;;;23.00;57.70;;;;;;5096844;28;19924;-57
2023/08/17 11:15:06;;;;;;;;;;;23.00;57.70;;;;;;5120920;27;19932;-57
2023/08/17 11:17:33;;;;;;;;;;;23.10;57.90;;;;;;5096736;27;19982;-58
2023/08/17 11:20:00;;;;;;;;;;;23.10;57.80;;;;;;5115359;27;19923;-58
2023/08/17 11:22:28;;;;;;;;;;;23.10;57.90;;;;;;5113865;27;19923;-59
2023/08/17 11:24:55;;;;;;;;;;;23.00;57.80;;;;;;5096892;28;19977;-59
2023/08/17 11:27:22;;;;;;;;;;;23.10;57.90;;;;;;5116378;27;19935;-58
2023/08/17 11:29:48;;;;;;;;;;;23.10;57.90;;;;;;5104688;27;19924;-59
2023/08/17 11:32:16;;;;;;;;;;;23.10;57.90;;;;;;5117892;27;19923;-58
2023/08/17 11:34:43;;;;;;;;;;;23.10;57.90;;;;;;5100760;27;19924;-57
2023/08/17 11:37:12;;;;;;;;;;;23.10;57.90;;;;;;5104566;28;19989;-57
2023/08/17 11:39:40;;;;;;;;;;;23.10;57.90;;;;;;5123212;27;20315;-58
2023/08/17 11:42:07;;;;;;;;;;;23.10;57.90;;;;;;5096506;28;19928;-58
2023/08/17 11:44:34;;;;;;;;;;;23.10;57.90;;;;;;5100823;27;19927;-58
2023/08/17 11:47:02;;;;;;;;;;;23.10;57.90;;;;;;5093146;27;20339;-58
2023/08/17 11:49:31;;;;;;;;;;;23.10;57.90;;;;;;5122288;27;19928;-58
2023/08/17 11:51:58;;;;;;;;;;;23.10;57.90;;;;;;5113011;27;19932;-58
2023/08/17 11:54:24;;;;;;;;;;;23.10;57.90;;;;;;5095928;28;19935;-58
2023/08/17 11:56:52;;;;;;;;;;;23.10;57.90;;;;;;5114602;27;19928;-58
2023/08/17 11:59:19;;;;;;;;;;;23.10;57.90;;;;;;5095547;28;20417;-58
2023/08/17 12:01:46;;;;;;;;;;;23.10;58.00;;;;;;5092481;27;19930;-57
2023/08/17 12:04:13;;;;;;;;;;;23.10;58.00;;;;;;5096654;28;19969;-58
2023/08/17 12:06:44;;;;;;;;;;;23.10;58.00;;;;;;5095306;28;19943;-57
2023/08/17 12:09:12;;;;;;;;;;;23.10;58.00;;;;;;5095720;28;19936;-57
2023/08/17 12:11:39;;;;;;;;;;;23.10;58.10;;;;;;5093822;28;19923;-57
2023/08/17 12:14:11;;;;;;;;;;;23.10;58.00;;;;;;5111035;27;20651;-58
2023/08/17 12:16:45;;;;;;;;;;;23.10;58.10;;;;;;5095415;27;19923;-58
2023/08/17 12:19:12;;;;;;;;;;;23.10;58.10;;;;;;5099075;28;19928;-57
2023/08/17 12:21:39;;;;;;;;;;;23.10;58.10;;;;;;5115330;27;19932;-58
2023/08/17 12:24:06;;;;;;;;;;;23.20;58.10;;;;;;5092915;28;19929;-57
2023/08/17 12:26:35;;;;;;;;;;;23.20;58.10;;;;;;5097346;27;19928;-58
2023/08/17 12:29:02;;;;;;;;;;;23.10;58.10;;;;;;5094660;28;20126;-58
2023/08/17 12:31:30;;;;;;;;;;;23.10;58.10;;;;;;5095443;28;20027;-58
2023/08/17 12:33:57;;;;;;;;;;;23.10;58.60;;;;;;5114189;27;19919;-57
2023/08/17 12:36:24;;;;;;;;;;;23.10;58.10;;;;;;5092331;28;20475;-58
2023/08/17 12:38:51;;;;;;;;;;;23.10;58.00;;;;;;5096585;27;19919;-57
2023/08/17 12:41:18;;;;;;;;;;;23.10;58.00;;;;;;5095742;28;19972;-57
2023/08/17 12:43:45;;;;;;;;;;;23.10;57.90;;;;;;5079558;28;19931;-58
2023/08/17 12:46:11;;;;;;;;;;;23.10;57.90;;;;;;5098655;28;19977;-57
2023/08/17 12:48:40;;;;;;;;;;;23.10;57.90;;;;;;5096546;28;19956;-57
2023/08/17 12:51:06;;;;;;;;;;;23.10;57.90;;;;;;5100004;28;19932;-57
2023/08/17 12:53:33;;;;;;;;;;;23.10;57.80;;;;;;5099693;27;19947;-58
2023/08/17 12:56:00;;;;;;;;;;;23.20;57.90;;;;;;5094743;28;19931;-59
2023/08/17 12:58:27;;;;;;;;;;;23.10;57.80;;;;;;5095317;28;20313;-58
2023/08/17 13:00:54;;;;;;;;;;;23.10;57.90;;;;;;5112292;27;19934;-58
2023/08/17 13:03:21;;;;;;;;;;;23.10;57.80;;;;;;5093941;28;19973;-58
2023/08/17 13:05:49;;;;;;;;;;;23.10;57.90;;;;;;5115780;27;20405;-58
2023/08/17 13:08:16;;;;;;;;;;;23.10;57.90;;;;;;5095023;28;19932;-58
2023/08/17 13:10:43;;;;;;;;;;;23.10;57.90;;;;;;5097990;27;19981;-58
2023/08/17 13:13:09;;;;;;;;;;;23.10;57.90;;;;;;5095203;28;19928;-58
2023/08/17 13:15:36;;;;;;;;;;;23.10;57.90;;;;;;5117779;27;19935;-57
2023/08/17 13:18:03;;;;;;;;;;;23.10;57.90;;;;;;5092723;28;19928;-57
2023/08/17 13:20:30;;;;;;;;;;;23.10;57.90;;;;;;5112663;27;19931;-58
2023/08/17 13:22:59;;;;;;;;;;;23.10;57.90;;;;;;5114735;27;20057;-57
2023/08/17 13:25:26;;;;;;;;;;;23.10;57.90;;;;;;5110261;28;19924;-57
2023/08/17 13:27:52;;;;;;;;;;;23.10;57.90;;;;;;5112436;28;19931;-57
2023/08/17 13:30:19;;;;;;;;;;;23.10;57.90;;;;;;5091720;28;20304;-58
2023/08/17 13:32:46;;;;;;;;;;;23.10;57.90;;;;;;5123654;27;19927;-58
2023/08/17 13:35:13;;;;;;;;;;;23.10;58.00;;;;;;5111264;28;20003;-58
2023/08/17 13:37:39;;;;;;;;;;;23.10;58.00;;;;;;5113724;28;19931;-58
2023/08/17 13:40:08;;;;;;;;;;;23.10;57.90;;;;;;5092222;28;19977;-58
2023/08/17 13:42:36;;;;;;;;;;;23.10;57.90;;;;;;5093078;28;19927;-58
2023/08/17 13:45:03;;;;;;;;;;;23.10;57.90;;;;;;5116817;27;19923;-57
2023/08/17 13:47:30;;;;;;;;;;;23.10;57.90;;;;;;5100055;28;19942;-58
2023/08/17 13:49:57;;;;;;;;;;;23.10;57.90;;;;;;5102693;28;19920;-58
2023/08/17 13:52:24;;;;;;;;;;;23.10;57.90;;;;;;5114774;27;19938;-58
2023/08/17 13:54:50;;;;;;;;;;;23.10;57.90;;;;;;5128082;27;19928;-58
2023/08/17 13:57:19;;;;;;;;;;;23.10;57.90;;;;;;5117974;27;19928;-58
2023/08/17 13:59:45;;;;;;;;;;;23.10;57.80;;;;;;5101049;27;19984;-58
2023/08/17 14:02:12;;;;;;;;;;;23.10;57.90;;;;;;5103411;28;19932;-59
2023/08/17 14:04:39;;;;;;;;;;;23.10;57.90;;;;;;5099236;27;20517;-58
2023/08/17 14:07:06;;;;;;;;;;;23.10;57.90;;;;;;5099322;28;19924;-58
2023/08/17 14:09:32;;;;;;;;;;;23.10;57.90;;;;;;5098262;27;20023;-58
2023/08/17 14:11:59;;;;;;;;;;;23.10;57.80;;;;;;5097006;28;19924;-58
2023/08/17 14:14:28;;;;;;;;;;;23.10;57.80;;;;;;5095793;28;19924;-58
2023/08/17 14:16:55;;;;;;;;;;;23.10;57.70;;;;;;5103237;27;19923;-58